sensor_id;sensor_type;location;lat;lon;timestamp;P1;durP1;ratioP1;P2;durP2;ratioP2
39958;SDS011;25639;53.634;9.880;2023-05-07T00:00:20;20.67;;;12.88;;
39958;SDS011;25639;53.634;9.880;2023-05-07T00:02:46;18.83;;;12.07;;
39958;SDS011;25639;53.634;9.880;2023-05-07T00:05:12;19.20;;;12.65;;
39958;SDS011;25639;53.634;9.880;2023-05-07T00:07:37;18.50;;;12.50;;
39958;SDS011;25639;53.634;9.880;2023-05-07T00:10:03;18.83;;;12.70;;
39958;SDS011;25639;53.634;9.880;2023-05-07T00:12:29;20.08;;;12.77;;
39958;SDS011;25639;53.634;9.880;2023-05-07T00:14:58;19.95;;;12.32;;
39958;SDS011;25639;53.634;9.880;2023-05-07T00:17:24;21.88;;;12.98;;
39958;SDS011;25639;53.634;9.880;2023-05-07T00:19:49;21.23;;;12.55;;
39958;SDS011;25639;53.634;9.880;2023-05-07T00:22:14;20.48;;;12.85;;
39958;SDS011;25639;53.634;9.880;2023-05-07T00:24:40;22.13;;;13.05;;
39958;SDS011;25639;53.634;9.880;2023-05-07T00:27:05;20.67;;;12.88;;
39958;SDS011;25639;53.634;9.880;2023-05-07T00:29:30;20.40;;;13.07;;
39958;SDS011;25639;53.634;9.880;2023-05-07T00:31:56;23.60;;;13.45;;
39958;SDS011;25639;53.634;9.880;2023-05-07T00:34:21;23.92;;;13.27;;
39958;SDS011;25639;53.634;9.880;2023-05-07T00:36:47;21.30;;;12.98;;
39958;SDS011;25639;53.634;9.880;2023-05-07T00:39:12;22.02;;;13.60;;
39958;SDS011;25639;53.634;9.880;2023-05-07T00:41:37;20.60;;;12.60;;
39958;SDS011;25639;53.634;9.880;2023-05-07T00:44:03;24.08;;;12.55;;
39958;SDS011;25639;53.634;9.880;2023-05-07T00:46:28;21.25;;;12.93;;
39958;SDS011;25639;53.634;9.880;2023-05-07T00:48:56;20.95;;;13.02;;
39958;SDS011;25639;53.634;9.880;2023-05-07T00:51:22;25.20;;;13.88;;
39958;SDS011;25639;53.634;9.880;2023-05-07T00:53:49;20.70;;;13.30;;
39958;SDS011;25639;53.634;9.880;2023-05-07T00:56:14;22.00;;;13.60;;
39958;SDS011;25639;53.634;9.880;2023-05-07T00:58:40;22.77;;;14.20;;
39958;SDS011;25639;53.634;9.880;2023-05-07T01:01:05;22.38;;;13.02;;
39958;SDS011;25639;53.634;9.880;2023-05-07T01:03:31;23.73;;;13.38;;
39958;SDS011;25639;53.634;9.880;2023-05-07T01:05:56;21.90;;;13.82;;
39958;SDS011;25639;53.634;9.880;2023-05-07T01:08:23;22.48;;;12.90;;
39958;SDS011;25639;53.634;9.880;2023-05-07T01:10:51;22.65;;;14.07;;
39958;SDS011;25639;53.634;9.880;2023-05-07T01:13:17;21.20;;;12.98;;
39958;SDS011;25639;53.634;9.880;2023-05-07T01:15:44;22.77;;;12.48;;
39958;SDS011;25639;53.634;9.880;2023-05-07T01:18:09;22.20;;;13.13;;
39958;SDS011;25639;53.634;9.880;2023-05-07T01:20:35;21.13;;;12.55;;
39958;SDS011;25639;53.634;9.880;2023-05-07T01:23:00;21.83;;;12.40;;
39958;SDS011;25639;53.634;9.880;2023-05-07T01:25:26;21.08;;;12.63;;
39958;SDS011;25639;53.634;9.880;2023-05-07T01:27:52;20.52;;;12.63;;
39958;SDS011;25639;53.634;9.880;2023-05-07T01:30:17;22.55;;;11.93;;
39958;SDS011;25639;53.634;9.880;2023-05-07T01:32:47;16.25;;;11.30;;
39958;SDS011;25639;53.634;9.880;2023-05-07T01:35:18;17.60;;;12.05;;
39958;SDS011;25639;53.634;9.880;2023-05-07T01:37:45;23.63;;;11.93;;
39958;SDS011;25639;53.634;9.880;2023-05-07T01:40:12;21.33;;;11.82;;
39958;SDS011;25639;53.634;9.880;2023-05-07T01:42:38;18.40;;;11.50;;
39958;SDS011;25639;53.634;9.880;2023-05-07T01:45:04;19.38;;;11.65;;
39958;SDS011;25639;53.634;9.880;2023-05-07T01:47:30;16.60;;;11.05;;
39958;SDS011;25639;53.634;9.880;2023-05-07T01:49:56;19.25;;;11.80;;
39958;SDS011;25639;53.634;9.880;2023-05-07T01:52:22;16.75;;;10.95;;
39958;SDS011;25639;53.634;9.880;2023-05-07T01:54:47;20.25;;;11.73;;
39958;SDS011;25639;53.634;9.880;2023-05-07T01:57:12;18.17;;;11.43;;
39958;SDS011;25639;53.634;9.880;2023-05-07T01:59:37;19.20;;;11.60;;
39958;SDS011;25639;53.634;9.880;2023-05-07T02:02:03;23.92;;;11.35;;
39958;SDS011;25639;53.634;9.880;2023-05-07T02:04:28;15.88;;;9.68;;
39958;SDS011;25639;53.634;9.880;2023-05-07T02:06:53;16.58;;;10.77;;
39958;SDS011;25639;53.634;9.880;2023-05-07T02:09:19;16.50;;;10.88;;
39958;SDS011;25639;53.634;9.880;2023-05-07T02:11:44;17.80;;;10.73;;
39958;SDS011;25639;53.634;9.880;2023-05-07T02:14:10;19.00;;;11.50;;
39958;SDS011;25639;53.634;9.880;2023-05-07T02:16:35;20.13;;;11.48;;
39958;SDS011;25639;53.634;9.880;2023-05-07T02:19:01;19.35;;;11.07;;
39958;SDS011;25639;53.634;9.880;2023-05-07T02:21:26;18.52;;;12.25;;
39958;SDS011;25639;53.634;9.880;2023-05-07T02:23:51;18.23;;;10.88;;
39958;SDS011;25639;53.634;9.880;2023-05-07T02:26:17;18.55;;;11.35;;
39958;SDS011;25639;53.634;9.880;2023-05-07T02:28:43;19.92;;;12.50;;
39958;SDS011;25639;53.634;9.880;2023-05-07T02:31:08;18.48;;;11.15;;
39958;SDS011;25639;53.634;9.880;2023-05-07T02:33:33;17.88;;;10.82;;
39958;SDS011;25639;53.634;9.880;2023-05-07T02:36:06;16.67;;;10.35;;
39958;SDS011;25639;53.634;9.880;2023-05-07T02:38:33;18.27;;;10.47;;
39958;SDS011;25639;53.634;9.880;2023-05-07T02:40:59;17.10;;;10.07;;
39958;SDS011;25639;53.634;9.880;2023-05-07T02:43:24;16.27;;;10.23;;
39958;SDS011;25639;53.634;9.880;2023-05-07T02:45:59;16.15;;;10.27;;
39958;SDS011;25639;53.634;9.880;2023-05-07T02:48:25;15.18;;;9.48;;
39958;SDS011;25639;53.634;9.880;2023-05-07T02:50:51;19.30;;;10.40;;
39958;SDS011;25639;53.634;9.880;2023-05-07T02:53:16;18.45;;;9.57;;
39958;SDS011;25639;53.634;9.880;2023-05-07T02:55:41;20.10;;;9.88;;
39958;SDS011;25639;53.634;9.880;2023-05-07T02:58:06;16.08;;;9.50;;
39958;SDS011;25639;53.634;9.880;2023-05-07T03:00:31;15.15;;;9.55;;
39958;SDS011;25639;53.634;9.880;2023-05-07T03:02:57;16.90;;;8.90;;
39958;SDS011;25639;53.634;9.880;2023-05-07T03:05:22;16.25;;;9.88;;
39958;SDS011;25639;53.634;9.880;2023-05-07T03:07:47;16.58;;;9.65;;
39958;SDS011;25639;53.634;9.880;2023-05-07T03:10:13;15.60;;;9.80;;
39958;SDS011;25639;53.634;9.880;2023-05-07T03:12:38;17.70;;;9.95;;
39958;SDS011;25639;53.634;9.880;2023-05-07T03:15:03;17.90;;;10.15;;
39958;SDS011;25639;53.634;9.880;2023-05-07T03:17:29;16.20;;;10.02;;
39958;SDS011;25639;53.634;9.880;2023-05-07T03:19:54;16.10;;;9.85;;
39958;SDS011;25639;53.634;9.880;2023-05-07T03:22:19;16.35;;;9.75;;
39958;SDS011;25639;53.634;9.880;2023-05-07T03:24:45;16.45;;;11.00;;
39958;SDS011;25639;53.634;9.880;2023-05-07T03:27:10;16.45;;;10.07;;
39958;SDS011;25639;53.634;9.880;2023-05-07T03:29:36;17.75;;;10.25;;
39958;SDS011;25639;53.634;9.880;2023-05-07T03:32:01;17.70;;;10.45;;
39958;SDS011;25639;53.634;9.880;2023-05-07T03:34:26;21.75;;;12.05;;
39958;SDS011;25639;53.634;9.880;2023-05-07T03:36:51;18.77;;;11.68;;
39958;SDS011;25639;53.634;9.880;2023-05-07T03:39:16;21.58;;;11.48;;
39958;SDS011;25639;53.634;9.880;2023-05-07T03:41:42;24.08;;;12.52;;
39958;SDS011;25639;53.634;9.880;2023-05-07T03:44:07;21.40;;;12.02;;
39958;SDS011;25639;53.634;9.880;2023-05-07T03:46:33;21.83;;;12.30;;
39958;SDS011;25639;53.634;9.880;2023-05-07T03:48:59;22.10;;;13.00;;
39958;SDS011;25639;53.634;9.880;2023-05-07T03:51:24;21.00;;;11.38;;
39958;SDS011;25639;53.634;9.880;2023-05-07T03:53:50;19.38;;;11.95;;
39958;SDS011;25639;53.634;9.880;2023-05-07T03:56:17;22.85;;;12.55;;
39958;SDS011;25639;53.634;9.880;2023-05-07T03:58:43;20.83;;;11.82;;
39958;SDS011;25639;53.634;9.880;2023-05-07T04:01:09;23.02;;;12.35;;
39958;SDS011;25639;53.634;9.880;2023-05-07T04:03:34;18.05;;;11.57;;
39958;SDS011;25639;53.634;9.880;2023-05-07T04:05:59;19.08;;;11.38;;
39958;SDS011;25639;53.634;9.880;2023-05-07T04:08:25;17.95;;;11.40;;
39958;SDS011;25639;53.634;9.880;2023-05-07T04:10:59;18.15;;;11.90;;
39958;SDS011;25639;53.634;9.880;2023-05-07T04:13:25;18.92;;;11.57;;
39958;SDS011;25639;53.634;9.880;2023-05-07T04:15:51;18.23;;;10.93;;
39958;SDS011;25639;53.634;9.880;2023-05-07T04:18:16;18.52;;;10.65;;
39958;SDS011;25639;53.634;9.880;2023-05-07T04:20:42;18.33;;;11.40;;
39958;SDS011;25639;53.634;9.880;2023-05-07T04:23:07;17.88;;;11.75;;
39958;SDS011;25639;53.634;9.880;2023-05-07T04:25:33;14.90;;;9.77;;
39958;SDS011;25639;53.634;9.880;2023-05-07T04:27:58;16.38;;;10.60;;
39958;SDS011;25639;53.634;9.880;2023-05-07T04:30:24;17.08;;;10.93;;
39958;SDS011;25639;53.634;9.880;2023-05-07T04:32:50;18.20;;;10.95;;
39958;SDS011;25639;53.634;9.880;2023-05-07T04:35:15;19.08;;;10.55;;
39958;SDS011;25639;53.634;9.880;2023-05-07T04:37:40;18.70;;;11.32;;
39958;SDS011;25639;53.634;9.880;2023-05-07T04:40:06;18.40;;;11.18;;
39958;SDS011;25639;53.634;9.880;2023-05-07T04:42:32;19.02;;;11.45;;
39958;SDS011;25639;53.634;9.880;2023-05-07T04:44:57;16.17;;;10.45;;
39958;SDS011;25639;53.634;9.880;2023-05-07T04:47:23;16.52;;;9.95;;
39958;SDS011;25639;53.634;9.880;2023-05-07T04:49:48;14.77;;;9.45;;
39958;SDS011;25639;53.634;9.880;2023-05-07T04:52:13;16.17;;;10.35;;
39958;SDS011;25639;53.634;9.880;2023-05-07T04:54:38;15.13;;;9.77;;
39958;SDS011;25639;53.634;9.880;2023-05-07T04:57:04;16.40;;;10.60;;
39958;SDS011;25639;53.634;9.880;2023-05-07T04:59:29;16.95;;;10.10;;
39958;SDS011;25639;53.634;9.880;2023-05-07T05:01:55;13.18;;;8.30;;
39958;SDS011;25639;53.634;9.880;2023-05-07T05:04:20;15.35;;;9.05;;
39958;SDS011;25639;53.634;9.880;2023-05-07T05:06:46;15.32;;;9.63;;
39958;SDS011;25639;53.634;9.880;2023-05-07T05:09:11;14.95;;;9.70;;
39958;SDS011;25639;53.634;9.880;2023-05-07T05:11:36;16.98;;;9.63;;
39958;SDS011;25639;53.634;9.880;2023-05-07T05:14:01;16.17;;;9.85;;
39958;SDS011;25639;53.634;9.880;2023-05-07T05:16:27;13.90;;;9.25;;
39958;SDS011;25639;53.634;9.880;2023-05-07T05:18:52;15.52;;;9.52;;
39958;SDS011;25639;53.634;9.880;2023-05-07T05:21:19;12.85;;;9.05;;
39958;SDS011;25639;53.634;9.880;2023-05-07T05:23:44;15.50;;;9.35;;
39958;SDS011;25639;53.634;9.880;2023-05-07T05:26:10;15.57;;;8.55;;
39958;SDS011;25639;53.634;9.880;2023-05-07T05:28:35;14.50;;;9.15;;
39958;SDS011;25639;53.634;9.880;2023-05-07T05:31:01;15.70;;;9.70;;
39958;SDS011;25639;53.634;9.880;2023-05-07T05:33:26;17.10;;;9.82;;
39958;SDS011;25639;53.634;9.880;2023-05-07T05:35:53;16.15;;;9.75;;
39958;SDS011;25639;53.634;9.880;2023-05-07T05:38:19;15.40;;;9.45;;
39958;SDS011;25639;53.634;9.880;2023-05-07T05:40:44;17.70;;;9.85;;
39958;SDS011;25639;53.634;9.880;2023-05-07T05:43:09;14.10;;;8.77;;
39958;SDS011;25639;53.634;9.880;2023-05-07T05:45:35;17.52;;;9.93;;
39958;SDS011;25639;53.634;9.880;2023-05-07T05:48:00;15.85;;;9.77;;
39958;SDS011;25639;53.634;9.880;2023-05-07T05:50:25;14.25;;;9.25;;
39958;SDS011;25639;53.634;9.880;2023-05-07T05:52:51;16.27;;;9.70;;
39958;SDS011;25639;53.634;9.880;2023-05-07T05:55:16;15.45;;;9.13;;
39958;SDS011;25639;53.634;9.880;2023-05-07T05:57:42;15.23;;;10.18;;
39958;SDS011;25639;53.634;9.880;2023-05-07T06:00:07;16.02;;;9.98;;
39958;SDS011;25639;53.634;9.880;2023-05-07T06:02:33;16.15;;;9.40;;
39958;SDS011;25639;53.634;9.880;2023-05-07T06:04:58;15.73;;;10.00;;
39958;SDS011;25639;53.634;9.880;2023-05-07T06:07:23;17.30;;;9.57;;
39958;SDS011;25639;53.634;9.880;2023-05-07T06:09:49;17.08;;;9.65;;
39958;SDS011;25639;53.634;9.880;2023-05-07T06:12:14;16.77;;;9.90;;
39958;SDS011;25639;53.634;9.880;2023-05-07T06:14:39;17.88;;;10.98;;
39958;SDS011;25639;53.634;9.880;2023-05-07T06:17:05;14.95;;;9.77;;
39958;SDS011;25639;53.634;9.880;2023-05-07T06:19:31;15.73;;;10.35;;
39958;SDS011;25639;53.634;9.880;2023-05-07T06:21:57;16.40;;;9.70;;
39958;SDS011;25639;53.634;9.880;2023-05-07T06:24:22;14.60;;;9.85;;
39958;SDS011;25639;53.634;9.880;2023-05-07T06:26:48;16.20;;;9.45;;
39958;SDS011;25639;53.634;9.880;2023-05-07T06:29:13;16.17;;;9.23;;
39958;SDS011;25639;53.634;9.880;2023-05-07T06:31:38;14.57;;;9.40;;
39958;SDS011;25639;53.634;9.880;2023-05-07T06:34:04;17.20;;;9.15;;
39958;SDS011;25639;53.634;9.880;2023-05-07T06:36:29;14.35;;;9.77;;
39958;SDS011;25639;53.634;9.880;2023-05-07T06:38:55;14.52;;;9.18;;
39958;SDS011;25639;53.634;9.880;2023-05-07T06:41:20;19.17;;;9.32;;
39958;SDS011;25639;53.634;9.880;2023-05-07T06:43:45;14.93;;;9.30;;
39958;SDS011;25639;53.634;9.880;2023-05-07T06:46:11;13.50;;;8.95;;
39958;SDS011;25639;53.634;9.880;2023-05-07T06:48:36;16.50;;;9.93;;
39958;SDS011;25639;53.634;9.880;2023-05-07T06:51:01;14.85;;;9.88;;
39958;SDS011;25639;53.634;9.880;2023-05-07T06:53:26;19.20;;;8.90;;
39958;SDS011;25639;53.634;9.880;2023-05-07T06:55:53;15.10;;;9.57;;
39958;SDS011;25639;53.634;9.880;2023-05-07T06:58:19;14.27;;;8.73;;
39958;SDS011;25639;53.634;9.880;2023-05-07T07:00:44;14.13;;;8.75;;
39958;SDS011;25639;53.634;9.880;2023-05-07T07:03:10;13.70;;;8.90;;
39958;SDS011;25639;53.634;9.880;2023-05-07T07:05:36;13.32;;;7.93;;
39958;SDS011;25639;53.634;9.880;2023-05-07T07:08:01;14.60;;;8.27;;
39958;SDS011;25639;53.634;9.880;2023-05-07T07:10:26;13.35;;;8.68;;
39958;SDS011;25639;53.634;9.880;2023-05-07T07:12:52;15.32;;;9.18;;
39958;SDS011;25639;53.634;9.880;2023-05-07T07:15:17;13.27;;;8.48;;
39958;SDS011;25639;53.634;9.880;2023-05-07T07:17:45;13.18;;;8.55;;
39958;SDS011;25639;53.634;9.880;2023-05-07T07:20:11;14.95;;;8.93;;
39958;SDS011;25639;53.634;9.880;2023-05-07T07:22:36;12.35;;;7.75;;
39958;SDS011;25639;53.634;9.880;2023-05-07T07:25:01;15.25;;;8.35;;
39958;SDS011;25639;53.634;9.880;2023-05-07T07:27:26;12.75;;;8.15;;
39958;SDS011;25639;53.634;9.880;2023-05-07T07:29:52;11.80;;;7.50;;
39958;SDS011;25639;53.634;9.880;2023-05-07T07:32:17;14.88;;;7.97;;
39958;SDS011;25639;53.634;9.880;2023-05-07T07:34:42;12.32;;;8.18;;
39958;SDS011;25639;53.634;9.880;2023-05-07T07:37:08;12.38;;;8.05;;
39958;SDS011;25639;53.634;9.880;2023-05-07T07:39:33;11.75;;;7.18;;
39958;SDS011;25639;53.634;9.880;2023-05-07T07:41:59;12.93;;;7.78;;
39958;SDS011;25639;53.634;9.880;2023-05-07T07:44:25;14.60;;;8.05;;
39958;SDS011;25639;53.634;9.880;2023-05-07T07:46:50;9.95;;;7.57;;
39958;SDS011;25639;53.634;9.880;2023-05-07T07:49:15;11.95;;;7.55;;
39958;SDS011;25639;53.634;9.880;2023-05-07T07:51:41;11.00;;;7.40;;
39958;SDS011;25639;53.634;9.880;2023-05-07T07:54:06;10.20;;;7.18;;
39958;SDS011;25639;53.634;9.880;2023-05-07T07:56:32;11.20;;;7.22;;
39958;SDS011;25639;53.634;9.880;2023-05-07T07:59:01;10.45;;;6.95;;
39958;SDS011;25639;53.634;9.880;2023-05-07T08:01:26;10.23;;;7.20;;
39958;SDS011;25639;53.634;9.880;2023-05-07T08:03:52;11.88;;;6.80;;
39958;SDS011;25639;53.634;9.880;2023-05-07T08:06:17;9.00;;;6.55;;
39958;SDS011;25639;53.634;9.880;2023-05-07T08:08:43;11.23;;;7.03;;
39958;SDS011;25639;53.634;9.880;2023-05-07T08:11:08;11.45;;;6.93;;
39958;SDS011;25639;53.634;9.880;2023-05-07T08:13:34;12.95;;;7.10;;
39958;SDS011;25639;53.634;9.880;2023-05-07T08:15:59;11.90;;;7.05;;
39958;SDS011;25639;53.634;9.880;2023-05-07T08:18:25;13.00;;;7.03;;
39958;SDS011;25639;53.634;9.880;2023-05-07T08:20:50;10.93;;;6.80;;
39958;SDS011;25639;53.634;9.880;2023-05-07T08:23:16;9.20;;;6.40;;
39958;SDS011;25639;53.634;9.880;2023-05-07T08:25:41;9.40;;;6.75;;
39958;SDS011;25639;53.634;9.880;2023-05-07T08:28:07;12.20;;;6.82;;
39958;SDS011;25639;53.634;9.880;2023-05-07T08:30:33;10.73;;;6.80;;
39958;SDS011;25639;53.634;9.880;2023-05-07T08:32:58;12.63;;;6.82;;
39958;SDS011;25639;53.634;9.880;2023-05-07T08:35:23;9.68;;;6.35;;
39958;SDS011;25639;53.634;9.880;2023-05-07T08:37:50;10.40;;;7.00;;
39958;SDS011;25639;53.634;9.880;2023-05-07T08:40:15;8.68;;;6.07;;
39958;SDS011;25639;53.634;9.880;2023-05-07T08:42:41;11.23;;;7.25;;
39958;SDS011;25639;53.634;9.880;2023-05-07T08:45:09;9.27;;;6.35;;
39958;SDS011;25639;53.634;9.880;2023-05-07T08:47:46;12.55;;;6.53;;
39958;SDS011;25639;53.634;9.880;2023-05-07T08:50:14;8.93;;;6.38;;
39958;SDS011;25639;53.634;9.880;2023-05-07T08:52:40;8.90;;;7.03;;
39958;SDS011;25639;53.634;9.880;2023-05-07T08:55:06;13.15;;;7.20;;
39958;SDS011;25639;53.634;9.880;2023-05-07T08:57:32;10.70;;;6.63;;
39958;SDS011;25639;53.634;9.880;2023-05-07T08:59:57;10.80;;;7.10;;
39958;SDS011;25639;53.634;9.880;2023-05-07T09:02:23;12.73;;;7.45;;
39958;SDS011;25639;53.634;9.880;2023-05-07T09:04:48;10.60;;;7.28;;
39958;SDS011;25639;53.634;9.880;2023-05-07T09:07:14;13.57;;;7.72;;
39958;SDS011;25639;53.634;9.880;2023-05-07T09:09:39;11.75;;;7.65;;
39958;SDS011;25639;53.634;9.880;2023-05-07T09:12:04;10.80;;;7.40;;
39958;SDS011;25639;53.634;9.880;2023-05-07T09:14:30;12.68;;;7.07;;
39958;SDS011;25639;53.634;9.880;2023-05-07T09:16:56;10.35;;;6.65;;
39958;SDS011;25639;53.634;9.880;2023-05-07T09:19:25;12.60;;;7.05;;
39958;SDS011;25639;53.634;9.880;2023-05-07T09:22:01;10.32;;;7.13;;
39958;SDS011;25639;53.634;9.880;2023-05-07T09:24:28;12.40;;;7.45;;
39958;SDS011;25639;53.634;9.880;2023-05-07T09:26:57;9.43;;;6.63;;
39958;SDS011;25639;53.634;9.880;2023-05-07T09:29:23;10.93;;;7.55;;
39958;SDS011;25639;53.634;9.880;2023-05-07T09:31:48;10.65;;;5.97;;
39958;SDS011;25639;53.634;9.880;2023-05-07T09:34:13;10.98;;;7.30;;
39958;SDS011;25639;53.634;9.880;2023-05-07T09:36:39;11.70;;;6.88;;
39958;SDS011;25639;53.634;9.880;2023-05-07T09:39:04;11.80;;;6.78;;
39958;SDS011;25639;53.634;9.880;2023-05-07T09:41:31;10.15;;;5.90;;
39958;SDS011;25639;53.634;9.880;2023-05-07T09:43:57;10.20;;;6.35;;
39958;SDS011;25639;53.634;9.880;2023-05-07T09:46:25;10.00;;;6.28;;
39958;SDS011;25639;53.634;9.880;2023-05-07T09:48:57;9.00;;;6.47;;
39958;SDS011;25639;53.634;9.880;2023-05-07T09:51:25;11.77;;;6.80;;
39958;SDS011;25639;53.634;9.880;2023-05-07T09:53:54;9.43;;;5.97;;
39958;SDS011;25639;53.634;9.880;2023-05-07T09:56:21;10.00;;;5.93;;
39958;SDS011;25639;53.634;9.880;2023-05-07T09:58:47;9.98;;;5.97;;
39958;SDS011;25639;53.634;9.880;2023-05-07T10:01:14;10.88;;;6.13;;
39958;SDS011;25639;53.634;9.880;2023-05-07T10:03:42;8.77;;;6.07;;
39958;SDS011;25639;53.634;9.880;2023-05-07T10:06:09;11.23;;;6.35;;
39958;SDS011;25639;53.634;9.880;2023-05-07T10:08:35;9.43;;;6.00;;
39958;SDS011;25639;53.634;9.880;2023-05-07T10:11:03;7.65;;;5.63;;
39958;SDS011;25639;53.634;9.880;2023-05-07T10:13:29;8.38;;;5.60;;
39958;SDS011;25639;53.634;9.880;2023-05-07T10:15:55;9.13;;;5.40;;
39958;SDS011;25639;53.634;9.880;2023-05-07T10:18:21;7.60;;;5.50;;
39958;SDS011;25639;53.634;9.880;2023-05-07T10:20:54;9.18;;;6.03;;
39958;SDS011;25639;53.634;9.880;2023-05-07T10:23:26;10.55;;;5.68;;
39958;SDS011;25639;53.634;9.880;2023-05-07T10:25:52;9.90;;;6.55;;
39958;SDS011;25639;53.634;9.880;2023-05-07T10:28:19;9.27;;;5.90;;
39958;SDS011;25639;53.634;9.880;2023-05-07T10:30:58;11.98;;;6.50;;
39958;SDS011;25639;53.634;9.880;2023-05-07T10:33:27;8.95;;;6.65;;
39958;SDS011;25639;53.634;9.880;2023-05-07T10:35:58;8.73;;;6.00;;
39958;SDS011;25639;53.634;9.880;2023-05-07T10:38:26;10.27;;;6.47;;
39958;SDS011;25639;53.634;9.880;2023-05-07T10:40:52;9.15;;;6.20;;
39958;SDS011;25639;53.634;9.880;2023-05-07T10:43:18;8.60;;;6.05;;
39958;SDS011;25639;53.634;9.880;2023-05-07T10:45:43;8.85;;;6.15;;
39958;SDS011;25639;53.634;9.880;2023-05-07T10:48:12;8.15;;;5.93;;
39958;SDS011;25639;53.634;9.880;2023-05-07T10:50:39;8.68;;;5.68;;
39958;SDS011;25639;53.634;9.880;2023-05-07T10:55:44;9.23;;;5.55;;
39958;SDS011;25639;53.634;9.880;2023-05-07T11:00:45;9.55;;;5.60;;
39958;SDS011;25639;53.634;9.880;2023-05-07T11:03:11;8.05;;;5.63;;
39958;SDS011;25639;53.634;9.880;2023-05-07T11:05:36;8.45;;;5.45;;
39958;SDS011;25639;53.634;9.880;2023-05-07T11:08:04;8.07;;;5.40;;
39958;SDS011;25639;53.634;9.880;2023-05-07T11:13:44;10.27;;;5.57;;
39958;SDS011;25639;53.634;9.880;2023-05-07T11:16:20;8.55;;;4.60;;
39958;SDS011;25639;53.634;9.880;2023-05-07T11:18:50;5.85;;;4.63;;
39958;SDS011;25639;53.634;9.880;2023-05-07T11:21:32;7.30;;;4.82;;
39958;SDS011;25639;53.634;9.880;2023-05-07T11:23:59;6.03;;;4.80;;
39958;SDS011;25639;53.634;9.880;2023-05-07T11:26:26;6.28;;;4.53;;
39958;SDS011;25639;53.634;9.880;2023-05-07T11:28:52;5.75;;;4.63;;
39958;SDS011;25639;53.634;9.880;2023-05-07T11:31:22;7.50;;;4.68;;
39958;SDS011;25639;53.634;9.880;2023-05-07T11:33:51;7.95;;;4.68;;
39958;SDS011;25639;53.634;9.880;2023-05-07T11:36:17;5.32;;;4.50;;
39958;SDS011;25639;53.634;9.880;2023-05-07T11:38:43;6.78;;;4.18;;
39958;SDS011;25639;53.634;9.880;2023-05-07T11:41:08;6.72;;;4.05;;
39958;SDS011;25639;53.634;9.880;2023-05-07T11:43:33;6.05;;;4.10;;
39958;SDS011;25639;53.634;9.880;2023-05-07T11:46:10;5.38;;;4.55;;
39958;SDS011;25639;53.634;9.880;2023-05-07T11:48:37;6.32;;;4.10;;
39958;SDS011;25639;53.634;9.880;2023-05-07T11:51:03;4.30;;;3.60;;
39958;SDS011;25639;53.634;9.880;2023-05-07T11:53:40;4.60;;;3.88;;
39958;SDS011;25639;53.634;9.880;2023-05-07T11:56:07;7.53;;;4.45;;
39958;SDS011;25639;53.634;9.880;2023-05-07T11:58:33;8.45;;;3.97;;
39958;SDS011;25639;53.634;9.880;2023-05-07T12:00:58;5.35;;;4.10;;
39958;SDS011;25639;53.634;9.880;2023-05-07T12:03:23;5.07;;;4.10;;
39958;SDS011;25639;53.634;9.880;2023-05-07T12:05:49;6.28;;;4.35;;
39958;SDS011;25639;53.634;9.880;2023-05-07T12:08:14;6.07;;;4.55;;
39958;SDS011;25639;53.634;9.880;2023-05-07T12:10:44;7.25;;;4.55;;
39958;SDS011;25639;53.634;9.880;2023-05-07T12:13:16;6.50;;;4.50;;
39958;SDS011;25639;53.634;9.880;2023-05-07T12:15:43;5.13;;;3.83;;
39958;SDS011;25639;53.634;9.880;2023-05-07T12:18:08;4.63;;;3.50;;
39958;SDS011;25639;53.634;9.880;2023-05-07T12:20:34;5.63;;;4.38;;
39958;SDS011;25639;53.634;9.880;2023-05-07T12:23:01;5.97;;;3.75;;
39958;SDS011;25639;53.634;9.880;2023-05-07T12:25:29;6.75;;;3.83;;
39958;SDS011;25639;53.634;9.880;2023-05-07T12:27:56;5.30;;;3.92;;
39958;SDS011;25639;53.634;9.880;2023-05-07T12:30:23;5.93;;;3.45;;
39958;SDS011;25639;53.634;9.880;2023-05-07T12:32:52;6.03;;;3.80;;
39958;SDS011;25639;53.634;9.880;2023-05-07T12:35:17;5.22;;;3.67;;
39958;SDS011;25639;53.634;9.880;2023-05-07T12:37:54;6.90;;;3.67;;
39958;SDS011;25639;53.634;9.880;2023-05-07T12:40:20;4.05;;;3.30;;
39958;SDS011;25639;53.634;9.880;2023-05-07T12:42:46;7.72;;;3.50;;
39958;SDS011;25639;53.634;9.880;2023-05-07T12:45:11;5.70;;;3.50;;
39958;SDS011;25639;53.634;9.880;2023-05-07T12:47:44;5.05;;;3.60;;
39958;SDS011;25639;53.634;9.880;2023-05-07T12:50:10;5.25;;;3.33;;
39958;SDS011;25639;53.634;9.880;2023-05-07T12:52:36;4.93;;;3.28;;
39958;SDS011;25639;53.634;9.880;2023-05-07T12:55:05;6.45;;;3.35;;
39958;SDS011;25639;53.634;9.880;2023-05-07T12:57:37;4.35;;;3.55;;
39958;SDS011;25639;53.634;9.880;2023-05-07T13:00:04;6.70;;;3.10;;
39958;SDS011;25639;53.634;9.880;2023-05-07T13:02:33;4.45;;;3.28;;
39958;SDS011;25639;53.634;9.880;2023-05-07T13:05:02;7.68;;;3.65;;
39958;SDS011;25639;53.634;9.880;2023-05-07T13:07:27;4.50;;;3.17;;
39958;SDS011;25639;53.634;9.880;2023-05-07T13:09:53;4.30;;;3.33;;
39958;SDS011;25639;53.634;9.880;2023-05-07T13:12:18;4.50;;;3.20;;
39958;SDS011;25639;53.634;9.880;2023-05-07T13:14:43;6.85;;;3.72;;
39958;SDS011;25639;53.634;9.880;2023-05-07T13:17:09;4.97;;;3.28;;
39958;SDS011;25639;53.634;9.880;2023-05-07T13:19:34;5.65;;;3.15;;
39958;SDS011;25639;53.634;9.880;2023-05-07T13:22:00;5.53;;;3.30;;
39958;SDS011;25639;53.634;9.880;2023-05-07T13:24:25;3.70;;;3.05;;
39958;SDS011;25639;53.634;9.880;2023-05-07T13:26:50;3.45;;;2.70;;
39958;SDS011;25639;53.634;9.880;2023-05-07T13:29:15;5.03;;;3.10;;
39958;SDS011;25639;53.634;9.880;2023-05-07T13:31:41;6.38;;;3.10;;
39958;SDS011;25639;53.634;9.880;2023-05-07T13:34:08;5.50;;;2.75;;
39958;SDS011;25639;53.634;9.880;2023-05-07T13:36:34;5.15;;;2.80;;
39958;SDS011;25639;53.634;9.880;2023-05-07T13:39:02;3.35;;;2.70;;
39958;SDS011;25639;53.634;9.880;2023-05-07T13:41:31;3.92;;;2.47;;
39958;SDS011;25639;53.634;9.880;2023-05-07T13:43:56;3.95;;;2.58;;
39958;SDS011;25639;53.634;9.880;2023-05-07T13:46:21;4.10;;;2.85;;
39958;SDS011;25639;53.634;9.880;2023-05-07T13:48:47;5.85;;;2.60;;
39958;SDS011;25639;53.634;9.880;2023-05-07T13:51:12;3.00;;;2.50;;
39958;SDS011;25639;53.634;9.880;2023-05-07T13:53:37;6.50;;;3.25;;
39958;SDS011;25639;53.634;9.880;2023-05-07T13:56:03;4.63;;;2.80;;
39958;SDS011;25639;53.634;9.880;2023-05-07T13:58:29;4.28;;;2.75;;
39958;SDS011;25639;53.634;9.880;2023-05-07T14:00:55;3.05;;;2.42;;
39958;SDS011;25639;53.634;9.880;2023-05-07T14:03:20;3.17;;;2.65;;
39958;SDS011;25639;53.634;9.880;2023-05-07T14:05:45;2.67;;;2.10;;
39958;SDS011;25639;53.634;9.880;2023-05-07T14:08:10;4.75;;;2.20;;
39958;SDS011;25639;53.634;9.880;2023-05-07T14:10:37;2.95;;;2.10;;
39958;SDS011;25639;53.634;9.880;2023-05-07T14:13:02;4.40;;;2.60;;
39958;SDS011;25639;53.634;9.880;2023-05-07T14:15:28;3.00;;;2.42;;
39958;SDS011;25639;53.634;9.880;2023-05-07T14:17:53;3.00;;;2.20;;
39958;SDS011;25639;53.634;9.880;2023-05-07T14:20:18;3.10;;;2.40;;
39958;SDS011;25639;53.634;9.880;2023-05-07T14:22:45;3.50;;;2.35;;
39958;SDS011;25639;53.634;9.880;2023-05-07T14:25:10;4.43;;;2.22;;
39958;SDS011;25639;53.634;9.880;2023-05-07T14:27:36;2.65;;;2.08;;
39958;SDS011;25639;53.634;9.880;2023-05-07T14:30:01;2.55;;;2.05;;
39958;SDS011;25639;53.634;9.880;2023-05-07T14:32:27;4.90;;;2.08;;
39958;SDS011;25639;53.634;9.880;2023-05-07T14:34:52;2.65;;;1.90;;
39958;SDS011;25639;53.634;9.880;2023-05-07T14:37:17;4.90;;;2.80;;